Time;durP1;ratioP1;P1;durP2;ratioP2;P2;SDS_P1;SDS_P2;PMS_P1;PMS_P2;Temp;Humidity;BMP_temperature;BMP_pressure;BME280_temperature;BME280_humidity;BME280_pressure;Samples;Min_cycle;Max_cycle;Signal;HPM_P1;HPM_P2
2023/04/20 00:00:24;;;;;;;53.33;32.63;;;;;;;9.44;96.38;97298.53;10401948;28;19969;-48
2023/04/20 00:05:23;;;;;;;48.65;31.00;;;;;;;9.38;96.41;97283.03;10401834;28;20105;-48
2023/04/20 00:10:22;;;;;;;50.58;27.70;;;;;;;9.34;95.77;97283.03;10401541;28;20483;-49
2023/04/20 00:15:21;;;;;;;60.45;38.42;;;;;;;9.15;96.62;97266.69;10401235;28;20466;-50
2023/04/20 00:20:20;;;;;;;55.67;32.63;;;;;;;9.04;97.60;97276.19;10400128;28;20498;-50
2023/04/20 00:25:20;;;;;;;49.28;29.80;;;;;;;8.67;98.53;97278.88;10401327;28;20028;-50
2023/04/20 00:30:19;;;;;;;32.40;19.63;;;;;;;8.25;99.75;97279.75;10401521;28;20103;-48
2023/04/20 00:35:18;;;;;;;30.90;19.17;;;;;;;7.93;100.00;97283.16;10401055;28;20078;-49
2023/04/20 00:40:17;;;;;;;32.35;19.85;;;;;;;8.00;99.83;97281.44;10403531;28;20059;-48
2023/04/20 00:45:16;;;;;;;51.83;19.90;;;;;;;8.00;99.30;97277.13;10409263;28;20110;-48
2023/04/20 00:50:16;;;;;;;124.18;34.55;;;;;;;7.98;99.39;97275.41;10408427;28;20033;-48
2023/04/20 00:55:15;;;;;;;121.50;28.48;;;;;;;7.78;99.70;97236.59;10408541;28;20097;-48
2023/04/20 01:00:15;;;;;;;139.32;28.38;;;;;;;7.64;100.00;97224.56;10408123;28;20478;-49
2023/04/20 01:05:15;;;;;;;170.88;34.05;;;;;;;7.87;100.00;97281.44;10408340;28;20075;-49
2023/04/20 01:10:14;;;;;;;136.63;33.75;;;;;;;7.94;100.00;97274.53;10407023;28;20108;-49
2023/04/20 01:15:13;;;;;;;;;;;;;;;7.99;100.00;97274.53;10408106;28;20499;-48
2023/04/20 01:20:12;;;;;;;160.45;29.02;;;;;;;7.65;100.00;97203.03;10407395;28;19922;-49
2023/04/20 01:25:11;;;;;;;110.75;27.70;;;;;;;8.16;100.00;97272.00;10406932;28;20428;-49
2023/04/20 01:30:10;;;;;;;133.60;32.40;;;;;;;7.33;100.00;97102.25;10406939;28;20256;-50
2023/04/20 01:35:10;;;;;;;113.28;29.95;;;;;;;8.38;100.00;97267.69;10407112;28;20071;-49
2023/04/20 01:40:11;;;;;;;99.05;28.30;;;;;;;8.41;100.00;97258.22;10407770;28;20111;-50
2023/04/20 01:45:10;;;;;;;72.32;28.20;;;;;;;8.55;100.00;97252.16;10410213;28;20060;-48
2023/04/20 01:50:09;;;;;;;64.38;25.73;;;;;;;8.60;100.00;97255.59;10409191;28;20080;-50
2023/04/20 01:55:08;;;;;;;;;;;;;;;8.60;100.00;97251.28;10409353;28;20505;-48
2023/04/20 02:00:08;;;;;;;75.95;28.65;;;;;;;8.57;99.41;97255.59;10408545;28;19974;-50
2023/04/20 02:05:08;;;;;;;97.18;28.88;;;;;;;8.46;99.70;97243.56;10407964;28;20107;-51
2023/04/20 02:10:07;;;;;;;61.38;26.40;;;;;;;8.42;99.69;97252.16;10409281;28;20148;-49
2023/04/20 02:15:08;;;;;;;95.45;28.25;;;;;;;8.11;99.52;97250.44;10408262;28;20071;-48
2023/04/20 02:20:08;;;;;;;62.78;24.35;;;;;;;7.82;99.29;97228.88;10407219;28;20075;-48
2023/04/20 02:25:07;;;;;;;94.72;27.25;;;;;;;7.92;100.00;97262.47;10407706;28;20068;-49
2023/04/20 02:30:07;;;;;;;92.07;25.88;;;;;;;7.97;99.99;97264.22;10406966;28;20076;-49
2023/04/20 02:35:06;;;;;;;67.30;23.92;;;;;;;7.87;99.72;97252.13;10408041;28;20067;-48
2023/04/20 02:40:07;;;;;;;88.57;27.85;;;;;;;8.03;99.62;97278.84;10404912;28;20064;-49
2023/04/20 02:45:06;;;;;;;96.72;28.63;;;;;;;8.11;99.74;97274.56;10404471;28;20079;-48
2023/04/20 02:50:06;;;;;;;84.50;33.33;;;;;;;8.25;99.82;97264.25;10403373;28;20486;-51
2023/04/20 02:55:05;;;;;;;75.57;30.10;;;;;;;8.35;99.60;97255.63;10404068;28;20052;-49
2023/04/20 03:00:07;;;;;;;61.10;28.25;;;;;;;8.46;99.84;97264.25;10402372;28;20125;-50
2023/04/20 03:05:06;;;;;;;88.38;26.95;;;;;;;8.41;99.21;97258.22;10404523;28;20474;-49
2023/04/20 03:10:06;;;;;;;;;;;;;;;8.34;98.30;97264.25;10403950;28;20112;-48
2023/04/20 03:15:06;;;;;;;124.88;30.60;;;;;;;8.04;98.29;97265.94;10402680;28;20322;-49
2023/04/20 03:20:06;;;;;;;69.57;25.95;;;;;;;7.70;99.25;97269.31;10402877;28;20082;-49
2023/04/20 03:25:06;;;;;;;65.80;27.48;;;;;;;7.69;99.43;97268.47;10384394;28;20553;-51
2023/04/20 03:30:06;;;;;;;56.83;26.95;;;;;;;7.76;99.90;97264.19;10401255;28;20131;-49
2023/04/20 03:35:05;;;;;;;65.57;28.30;;;;;;;7.91;100.00;97264.19;10402119;28;20115;-50
2023/04/20 03:40:09;;;;;;;66.78;27.83;;;;;;;8.06;99.25;97264.22;10404520;28;20068;-48
2023/04/20 03:45:08;;;;;;;107.50;31.08;;;;;;;8.11;99.57;97260.75;10402876;28;20457;-49
2023/04/20 03:50:07;;;;;;;;;;;;;;;8.09;99.48;97268.53;10401663;28;20085;-51
2023/04/20 03:55:06;;;;;;;79.70;27.70;;;;;;;8.01;99.92;97268.53;10401590;28;20050;-50
2023/04/20 04:00:06;;;;;;;115.55;29.70;;;;;;;8.06;99.80;97274.56;10401584;28;20052;-51
2023/04/20 04:05:05;;;;;;;101.25;28.80;;;;;;;8.03;99.74;97271.97;10402489;28;20072;-51
2023/04/20 04:10:05;;;;;;;150.68;34.28;;;;;;;8.00;99.75;97273.69;10400992;28;20108;-50
2023/04/20 04:15:04;;;;;;;106.60;35.97;;;;;;;8.05;99.46;97293.50;10402070;28;20060;-50
2023/04/20 04:20:07;;;;;;;130.18;38.75;;;;;;;8.06;99.43;97284.91;10408528;28;20115;-50
2023/04/20 04:25:06;;;;;;;60.58;27.27;;;;;;;8.12;100.00;97298.69;10410352;28;20078;-50
2023/04/20 04:30:06;;;;;;;75.68;27.08;;;;;;;8.16;99.96;97295.25;10408357;28;20111;-51
2023/04/20 04:35:05;;;;;;;84.97;27.85;;;;;;;8.25;99.52;97296.13;10403542;28;20064;-48
2023/04/20 04:40:07;;;;;;;67.88;26.55;;;;;;;8.24;99.94;97298.69;10396250;28;20489;-49
2023/04/20 04:45:09;;;;;;;49.47;27.90;;;;;;;8.05;99.93;97265.06;10405324;28;20108;-50
2023/04/20 04:50:09;;;;;;;51.42;26.23;;;;;;;8.29;99.60;97307.31;10403929;28;20123;-48
2023/04/20 04:55:08;;;;;;;72.68;26.58;;;;;;;8.41;99.78;97301.28;10406552;28;20104;-48
2023/04/20 05:00:11;;;;;;;;;;;;;;;8.52;98.68;97299.56;10407059;28;20482;-50
2023/04/20 05:05:10;;;;;;;56.67;28.27;;;;;;;8.60;98.94;97304.72;10406972;28;19982;-49
2023/04/20 05:10:09;;;;;;;;;;;;;;;8.78;98.55;97312.47;10406778;28;20139;-50
2023/04/20 05:15:08;;;;;;;49.97;28.42;;;;;;;9.03;98.45;97304.69;10408249;28;20015;-48
2023/04/20 05:20:10;;;;;;;41.78;26.60;;;;;;;9.06;96.81;97276.19;10404213;28;20104;-49
2023/04/20 05:25:10;;;;;;;32.05;23.13;;;;;;;9.19;95.29;97314.13;10405424;28;20221;-49
2023/04/20 05:30:09;;;;;;;42.90;28.67;;;;;;;9.24;95.82;97314.97;10406426;28;20167;-49
2023/04/20 05:35:08;;;;;;;44.08;30.55;;;;;;;9.31;96.20;97314.13;10406806;28;20119;-49
2023/04/20 05:40:08;;;;;;;;;;;;;;;9.60;96.17;97317.47;10409999;28;20075;-49
2023/04/20 05:45:07;;;;;;;40.38;27.90;;;;;;;9.90;94.57;97319.91;10407144;28;19951;-49
2023/04/20 05:50:07;;;;;;;44.88;30.95;;;;;;;10.21;93.07;97317.13;10403854;28;20127;-49
2023/04/20 05:55:07;;;;;;;42.50;30.83;;;;;;;10.39;92.32;97313.56;10406462;28;20056;-50
2023/04/20 06:00:07;;;;;;;37.60;25.00;;;;;;;10.46;89.74;97323.03;10406183;28;20474;-48
2023/04/20 06:05:08;;;;;;;30.65;22.77;;;;;;;10.34;89.31;97323.13;10406601;28;20517;-48
2023/04/20 06:10:08;;;;;;;29.73;22.17;;;;;;;10.28;87.67;97326.59;10404205;28;20090;-50
2023/04/20 06:15:09;;;;;;;28.95;21.98;;;;;;;10.19;88.48;97319.75;10406220;28;20060;-50
2023/04/20 06:20:10;;;;;;;27.13;20.33;;;;;;;10.53;90.62;97326.44;10404582;28;20513;-49
2023/04/20 06:25:09;;;;;;;23.02;16.95;;;;;;;10.90;86.52;97319.22;10405332;28;20068;-50
2023/04/20 06:30:09;;;;;;;23.80;18.30;;;;;;;10.92;86.50;97301.91;10404897;28;20111;-50
2023/04/20 06:35:08;;;;;;;23.98;18.20;;;;;;;11.00;85.22;97323.44;10405435;28;20135;-49
2023/04/20 06:40:07;;;;;;;25.52;18.92;;;;;;;11.10;84.99;97323.38;10403819;28;20108;-50
2023/04/20 06:45:06;;;;;;;;;;;;;;;11.16;84.89;97324.16;10404832;28;20147;-50
2023/04/20 06:50:08;;;;;;;28.23;19.57;;;;;;;10.70;83.38;97225.09;10403529;28;20015;-51
2023/04/20 06:55:07;;;;;;;30.15;22.20;;;;;;;11.07;81.74;97281.84;10402049;28;20128;-50
2023/04/20 07:00:08;;;;;;;35.85;24.88;;;;;;;11.34;81.58;97317.94;10401667;28;20147;-51
2023/04/20 07:05:07;;;;;;;29.05;21.30;;;;;;;11.52;84.79;97326.38;10386743;28;20068;-49
2023/04/20 07:10:07;;;;;;;;;;;;;;;11.91;82.75;97326.78;10400903;28;20494;-50
2023/04/20 07:15:07;;;;;;;31.42;24.77;;;;;;;12.10;82.02;97331.69;10403907;28;19986;-48
2023/04/20 07:20:07;;;;;;;38.33;28.08;;;;;;;12.17;79.21;97340.28;10402138;28;20160;-51
2023/04/20 07:25:08;;;;;;;39.55;31.08;;;;;;;12.28;80.09;97330.59;10401501;28;20063;-51
2023/04/20 07:30:09;;;;;;;35.03;22.33;;;;;;;12.45;77.20;97339.91;10403183;28;20526;-50
2023/04/20 07:35:08;;;;;;;35.53;24.65;;;;;;;12.58;76.41;97338.84;10401460;28;20076;-51
2023/04/20 07:40:08;;;;;;;34.63;24.38;;;;;;;12.74;76.40;97344.63;10401251;28;20056;-51
2023/04/20 07:45:09;;;;;;;36.80;28.52;;;;;;;12.67;76.32;97286.63;10402966;28;20060;-51
2023/04/20 07:50:09;;;;;;;25.50;19.02;;;;;;;13.00;72.86;97346.84;10399261;28;20136;-52
2023/04/20 07:55:10;;;;;;;28.35;19.13;;;;;;;13.12;70.93;97335.34;10402282;28;20064;-51
2023/04/20 08:00:11;;;;;;;29.80;21.02;;;;;;;13.78;75.17;97334.09;10401516;28;20163;-51
2023/04/20 08:05:10;;;;;;;21.05;17.45;;;;;;;14.27;68.03;97329.59;10402073;28;20115;-50
2023/04/20 08:10:09;;;;;;;;;;;;;;;14.14;62.47;97329.84;10400850;28;20157;-50
2023/04/20 08:15:09;;;;;;;25.73;15.17;;;;;;;14.21;63.69;97320.13;10399677;28;19971;-49
2023/04/20 08:20:09;;;;;;;19.80;14.38;;;;;;;14.10;64.31;97307.34;10399702;28;20123;-51
2023/04/20 08:25:08;;;;;;;23.60;15.10;;;;;;;14.02;65.97;97287.50;10400412;28;20064;-52
2023/04/20 08:30:07;;;;;;;;;;;;;;;14.31;65.16;97311.22;10400652;28;20134;-52
2023/04/20 08:35:07;;;;;;;18.97;14.53;;;;;;;14.22;64.69;97290.53;10400754;28;20015;-51
2023/04/20 08:40:07;;;;;;;20.17;13.82;;;;;;;14.25;62.85;97300.03;10399807;28;20456;-51
2023/04/20 08:45:06;;;;;;;16.10;12.10;;;;;;;14.15;63.51;97297.66;10394041;28;20463;-52
2023/04/20 08:50:06;;;;;;;17.95;11.68;;;;;;;13.96;61.00;97299.81;10399984;28;20116;-52
2023/04/20 08:55:06;;;;;;;12.02;8.48;;;;;;;13.94;56.37;97293.75;10399609;28;20560;-52
2023/04/20 09:00:07;;;;;;;12.43;7.45;;;;;;;14.08;54.06;97287.38;10400496;28;20112;-52
2023/04/20 09:05:07;;;;;;;8.68;7.20;;;;;;;14.09;52.26;97276.03;10406745;28;20111;-51
2023/04/20 09:10:06;;;;;;;11.40;8.50;;;;;;;14.25;53.33;97285.25;10408122;28;20128;-52
2023/04/20 09:15:05;;;;;;;13.18;9.35;;;;;;;14.22;54.85;97259.22;10407393;28;20071;-52
2023/04/20 09:20:07;;;;;;;12.25;9.45;;;;;;;14.52;55.44;97277.63;10407021;28;20501;-50
2023/04/20 09:25:16;;;;;;;13.10;9.77;;;;;;;14.56;52.73;97269.69;10407223;28;20057;-51
2023/04/20 09:30:15;;;;;;;12.20;8.63;;;;;;;14.81;53.58;97264.75;10406599;28;20174;-50
2023/04/20 09:35:21;;;;;;;;;;;;;;;15.23;53.02;97261.03;10406472;28;20042;-51
2023/04/20 09:40:22;;;;;;;8.35;6.07;;;;;;;15.17;50.98;97262.03;10406745;28;20011;-50
2023/04/20 09:45:21;;;;;;;11.15;8.25;;;;;;;15.41;51.15;97254.41;10405809;28;20060;-51
2023/04/20 09:50:20;;;;;;;9.77;7.15;;;;;;;15.53;51.29;97250.59;10405677;28;20144;-50
2023/04/20 09:55:20;;;;;;;10.70;6.40;;;;;;;15.43;51.21;97227.31;10404741;28;20072;-51
2023/04/20 10:00:20;;;;;;;11.30;6.95;;;;;;;15.87;50.16;97247.88;10407358;28;20064;-50
2023/04/20 10:05:19;;;;;;;7.35;5.15;;;;;;;15.73;47.68;97187.25;10404606;28;20135;-50
2023/04/20 10:10:18;;;;;;;8.68;5.55;;;;;;;16.29;48.96;97229.13;10406629;28;20127;-51
2023/04/20 10:15:18;;;;;;;8.40;5.63;;;;;;;16.35;48.13;97192.28;10406879;28;20028;-51
2023/04/20 10:20:24;;;;;;;7.80;5.10;;;;;;;16.83;46.48;97228.22;10404407;28;20068;-51
2023/04/20 10:25:25;;;;;;;6.90;5.78;;;;;;;17.53;49.83;97223.97;10404531;28;20115;-51
2023/04/20 10:30:26;;;;;;;6.85;5.55;;;;;;;17.64;43.75;97223.59;10405811;28;20472;-51
2023/04/20 10:35:25;;;;;;;7.35;5.38;;;;;;;17.48;44.10;97165.59;10404623;28;20131;-51
2023/04/20 10:40:28;;;;;;;9.15;5.60;;;;;;;17.57;44.19;97217.72;10404162;28;20024;-50
2023/04/20 10:45:35;;;;;;;7.18;5.03;;;;;;;17.58;43.46;97219.41;10387047;28;20123;-51
2023/04/20 10:50:34;;;;;;;8.10;6.15;;;;;;;17.81;43.97;97226.44;10405645;28;20120;-51
2023/04/20 10:55:33;;;;;;;9.30;6.50;;;;;;;17.52;46.30;97224.91;10405145;28;20079;-51
2023/04/20 11:00:32;;;;;;;9.95;5.75;;;;;;;17.55;45.55;97230.03;10403151;28;20020;-51
2023/04/20 11:05:31;;;;;;;10.95;5.93;;;;;;;17.52;45.57;97235.41;10403728;28;20035;-51
2023/04/20 11:10:38;;;;;;;7.47;5.40;;;;;;;17.96;44.98;97241.63;10403023;28;20567;-51
2023/04/20 11:15:38;;;;;;;7.22;4.70;;;;;;;18.26;44.14;97224.69;10403042;28;20128;-51
2023/04/20 11:20:48;;;;;;;8.63;6.03;;;;;;;18.57;43.93;97221.66;10402665;28;20523;-51
2023/04/20 11:25:55;;;;;;;8.23;6.03;;;;;;;18.58;44.36;97218.13;10402361;28;20062;-51
2023/04/20 11:30:54;;;;;;;7.13;4.85;;;;;;;19.06;44.34;97216.13;10400273;28;20227;-51
2023/04/20 11:35:54;;;;;;;11.23;6.13;;;;;;;19.54;43.80;97210.44;10401711;28;20021;-51
2023/04/20 11:40:53;;;;;;;7.03;5.00;;;;;;;20.03;41.74;97192.38;10402588;28;20589;-52
2023/04/20 11:45:52;;;;;;;7.72;5.70;;;;;;;20.26;42.49;97188.63;10399284;28;20731;-51
2023/04/20 11:50:51;;;;;;;8.70;5.03;;;;;;;20.41;41.72;97186.19;10401725;28;20033;-51
2023/04/20 11:55:50;;;;;;;8.45;5.30;;;;;;;20.01;39.80;97190.75;10397586;28;20020;-51
2023/04/20 12:00:49;;;;;;;6.68;4.82;;;;;;;19.50;41.63;97171.19;10398447;28;20449;-51
2023/04/20 12:05:47;;;;;;;9.68;5.22;;;;;;;18.01;42.53;97102.28;10399227;28;20092;-51
2023/04/20 12:10:46;;;;;;;14.18;6.80;;;;;;;16.38;61.93;97249.78;10400772;28;20166;-53
2023/04/20 12:15:45;;;;;;;10.85;5.88;;;;;;;13.48;78.13;97257.34;10398506;28;20016;-53
2023/04/20 12:20:45;;;;;;;14.90;9.73;;;;;;;12.34;91.80;97258.53;10385147;28;20032;-49
2023/04/20 12:25:45;;;;;;;11.30;6.97;;;;;;;12.12;96.52;97264.06;10400433;28;20083;-48
2023/04/20 12:30:44;;;;;;;10.18;7.25;;;;;;;11.84;99.07;97264.44;10400596;28;20120;-48
2023/04/20 12:35:44;;;;;;;14.52;8.75;;;;;;;11.68;99.97;97255.13;10402038;28;20063;-52
2023/04/20 12:40:43;;;;;;;10.82;8.20;;;;;;;11.54;100.00;97247.53;10406661;28;20104;-50
2023/04/20 12:45:41;;;;;;;;;;;;;;;11.67;100.00;97237.84;10409118;28;20107;-49
2023/04/20 12:50:41;;;;;;;10.90;9.00;;;;;;;11.78;100.00;97233.34;10407805;28;19916;-51
2023/04/20 12:55:40;;;;;;;10.82;7.72;;;;;;;11.98;100.00;97235.66;10407558;28;20141;-50
2023/04/20 13:00:40;;;;;;;;;;;;;;;12.08;100.00;97225.97;10408559;28;20173;-50
2023/04/20 13:05:39;;;;;;;8.88;6.22;;;;;;;12.04;100.00;97221.69;10408137;28;19959;-49
2023/04/20 13:10:38;;;;;;;;;;;;;;;12.11;100.00;97223.34;10407826;28;20037;-49
2023/04/20 13:15:37;;;;;;;9.07;6.40;;;;;;;12.17;100.00;97223.22;10406992;28;19963;-48
2023/04/20 13:20:36;;;;;;;9.95;7.13;;;;;;;12.09;100.00;97219.91;10405383;28;20027;-49
2023/04/20 13:25:37;;;;;;;10.68;6.88;;;;;;;12.07;100.00;97221.66;10390203;28;20032;-48
2023/04/20 13:30:36;;;;;;;8.40;6.32;;;;;;;12.25;100.00;97213.56;10408756;28;20071;-47
2023/04/20 13:35:36;;;;;;;7.38;5.85;;;;;;;12.47;100.00;97218.44;10407197;28;20072;-48
2023/04/20 13:40:34;;;;;;;7.95;5.35;;;;;;;12.87;100.00;97220.31;10405663;28;20120;-50
2023/04/20 13:45:33;;;;;;;;;;;;;;;13.18;100.00;97222.31;10408033;28;20036;-51
2023/04/20 13:50:32;;;;;;;9.07;7.05;;;;;;;13.44;100.00;97207.00;10405497;28;20459;-50
2023/04/20 13:55:31;;;;;;;;;;;;;;;14.06;100.00;97198.72;10406543;28;20509;-50
2023/04/20 14:00:30;;;;;;;9.05;6.53;;;;;;;14.69;100.00;97186.69;10405543;28;19962;-50
2023/04/20 14:05:29;;;;;;;;;;;;;;;15.05;100.00;97181.38;10406198;28;20512;-48
2023/04/20 14:10:28;;;;;;;8.40;5.43;;;;;;;14.84;95.20;97169.78;10405527;28;19960;-48
2023/04/20 14:15:27;;;;;;;7.25;4.43;;;;;;;14.57;94.17;97198.31;10405110;28;20055;-48
2023/04/20 14:20:26;;;;;;;7.70;5.18;;;;;;;14.51;98.76;97197.59;10403837;28;20471;-51
2023/04/20 14:25:25;;;;;;;7.03;4.35;;;;;;;14.41;96.49;97200.44;10405771;28;20091;-50
2023/04/20 14:30:24;;;;;;;5.25;4.18;;;;;;;14.19;93.00;97194.03;10404678;28;20078;-49
2023/04/20 14:35:25;;;;;;;5.68;4.55;;;;;;;13.98;94.97;97196.28;10407285;28;20072;-49
2023/04/20 14:40:24;;;;;;;9.90;5.90;;;;;;;13.78;95.40;97203.72;10408511;28;20079;-49
2023/04/20 14:45:23;;;;;;;;;;;;;;;13.56;95.25;97211.13;10408787;28;20441;-52
2023/04/20 14:50:26;;;;;;;11.40;7.07;;;;;;;13.11;88.80;97232.84;10408106;28;19923;-50
2023/04/20 14:55:25;;;;;;;8.90;6.63;;;;;;;12.59;89.23;97227.78;10408237;28;20063;-49
2023/04/20 15:00:26;;;;;;;;;;;;;;;12.59;88.94;97233.84;10407256;28;20023;-48
2023/04/20 15:05:26;;;;;;;12.77;8.63;;;;;;;12.44;91.51;97182.06;10407767;28;19962;-52
2023/04/20 15:10:26;;;;;;;10.20;7.20;;;;;;;12.70;90.65;97244.91;10407567;28;20047;-51
2023/04/20 15:15:26;;;;;;;8.73;6.40;;;;;;;12.82;93.70;97250.81;10407315;28;20064;-51
2023/04/20 15:20:25;;;;;;;7.80;5.25;;;;;;;12.98;93.64;97248.75;10406445;28;20071;-49
2023/04/20 15:25:24;;;;;;;18.65;9.70;;;;;;;12.95;89.68;97247.06;10407360;28;20489;-49
2023/04/20 15:30:23;;;;;;;;;;;;;;;12.82;87.57;97254.25;10407317;28;20090;-52
2023/04/20 15:35:22;;;;;;;13.38;9.50;;;;;;;12.78;87.75;97263.00;10406877;28;19912;-51
2023/04/20 15:40:21;;;;;;;;;;;;;;;12.93;91.60;97267.94;10406866;28;20673;-51
2023/04/20 15:45:20;;;;;;;10.27;8.15;;;;;;;13.23;91.57;97254.34;10406364;28;19916;-51
2023/04/20 15:50:19;;;;;;;13.82;8.30;;;;;;;13.44;92.56;97240.03;10406139;28;20135;-49
2023/04/20 15:55:18;;;;;;;;;;;;;;;13.66;93.02;97232.69;10408249;28;20044;-51
2023/04/20 16:00:17;;;;;;;10.93;8.13;;;;;;;13.92;90.67;97229.47;10405927;28;19912;-50
2023/04/20 16:05:16;;;;;;;12.50;8.25;;;;;;;14.12;93.01;97236.84;10405515;28;20107;-50
2023/04/20 16:10:15;;;;;;;;;;;;;;;14.13;89.55;97226.38;10405250;28;20059;-50
2023/04/20 16:15:15;;;;;;;8.47;6.47;;;;;;;14.03;88.87;97222.28;10413201;28;19985;-49
2023/04/20 16:20:14;;;;;;;8.95;6.05;;;;;;;13.86;89.24;97199.16;10412223;28;20127;-50
2023/04/20 16:25:21;;;;;;;9.68;6.85;;;;;;;13.62;90.82;97152.81;10412713;28;20067;-52
2023/04/20 16:30:20;;;;;;;10.45;6.10;;;;;;;13.90;90.26;97213.84;10413268;28;20086;-52
2023/04/20 16:35:19;;;;;;;;;;;;;;;13.82;86.88;97212.31;10413333;28;20059;-51
2023/04/20 16:40:19;;;;;;;16.83;13.07;;;;;;;13.44;85.30;97211.38;10412196;28;19924;-51
2023/04/20 16:45:18;;;;;;;28.30;18.38;;;;;;;13.05;85.71;97214.75;10413050;28;20115;-49
2023/04/20 16:50:20;;;;;;;;;;;;;;;12.94;88.81;97211.50;10411268;28;20120;-51
2023/04/20 16:55:19;;;;;;;19.35;14.57;;;;;;;12.86;90.70;97213.38;10411104;28;20788;-50
2023/04/20 17:00:18;;;;;;;35.75;23.85;;;;;;;12.58;90.82;97194.81;10406913;28;20082;-49
2023/04/20 17:05:17;;;;;;;22.75;16.67;;;;;;;12.27;89.50;97231.72;10411756;28;20063;-51
2023/04/20 17:10:16;;;;;;;;;;;;;;;11.97;90.66;97214.84;10411755;28;20036;-50
2023/04/20 17:15:15;;;;;;;35.00;22.48;;;;;;;11.94;92.90;97227.91;10412043;28;19983;-51
2023/04/20 17:20:14;;;;;;;;;;;;;;;11.84;93.54;97229.78;10410933;28;20028;-49
2023/04/20 17:25:13;;;;;;;24.97;17.93;;;;;;;11.50;94.59;97190.41;10407783;28;20003;-51
2023/04/20 17:30:12;;;;;;;;;;;;;;;11.56;95.23;97239.72;10410603;28;20066;-50
2023/04/20 17:35:11;;;;;;;28.20;22.50;;;;;;;11.38;96.41;97209.63;10409289;28;19995;-50
2023/04/20 17:40:10;;;;;;;;;;;;;;;11.41;96.91;97236.44;10405275;28;20039;-49
2023/04/20 17:45:10;;;;;;;22.50;15.75;;;;;;;11.34;95.82;97237.41;10407376;28;19917;-49
2023/04/20 17:50:12;;;;;;;38.08;28.38;;;;;;;11.17;95.83;97245.38;10403489;28;20765;-50
2023/04/20 17:55:11;;;;;;;33.60;27.75;;;;;;;10.98;94.81;97246.47;10406866;28;20147;-51
2023/04/20 18:00:10;;;;;;;41.30;30.00;;;;;;;10.69;96.48;97233.75;10404219;28;20039;-49
2023/04/20 18:05:09;;;;;;;26.95;21.92;;;;;;;10.76;96.47;97256.19;10403520;28;20079;-50
2023/04/20 18:10:09;;;;;;;40.53;27.63;;;;;;;10.68;96.12;97261.44;10400129;28;20558;-49
2023/04/20 18:15:08;;;;;;;31.38;25.85;;;;;;;10.48;95.66;97269.41;10400767;28;20123;-50
2023/04/20 18:20:08;;;;;;;44.40;30.58;;;;;;;10.42;97.38;97269.44;10404252;28;20577;-52
2023/04/20 18:25:07;;;;;;;;;;;;;;;10.40;97.04;97276.38;10384412;28;20068;-51
2023/04/20 18:30:06;;;;;;;94.40;59.00;;;;;;;10.36;96.86;97272.09;10400307;28;20301;-50
2023/04/20 18:35:06;;;;;;;69.72;49.35;;;;;;;10.27;98.20;97280.81;10400948;28;20127;-50
2023/04/20 18:40:06;;;;;;;71.18;49.88;;;;;;;10.20;98.08;97276.53;10402408;28;20115;-50
2023/04/20 18:45:05;;;;;;;51.05;40.10;;;;;;;10.18;98.43;97279.13;10399535;28;20120;-51
2023/04/20 18:50:05;;;;;;;34.45;26.75;;;;;;;10.11;97.27;97277.44;10401577;28;20491;-51
2023/04/20 18:55:04;;;;;;;33.33;24.70;;;;;;;9.99;97.69;97285.31;10400649;28;20107;-50
2023/04/20 19:00:07;;;;;;;35.00;25.38;;;;;;;9.91;98.05;97284.50;10396417;28;20160;-51
2023/04/20 19:05:06;;;;;;;36.03;26.58;;;;;;;9.89;97.91;97288.84;10386047;28;20120;-51
2023/04/20 19:10:06;;;;;;;51.70;36.78;;;;;;;9.84;98.08;97296.66;10399066;28;20120;-49
2023/04/20 19:15:05;;;;;;;59.45;42.58;;;;;;;9.77;98.20;97293.22;10398470;28;20123;-51
2023/04/20 19:20:05;;;;;;;40.47;32.50;;;;;;;9.62;97.73;97293.28;10400765;28;20123;-49
2023/04/20 19:25:04;;;;;;;53.92;36.47;;;;;;;9.59;98.04;97293.31;10400790;28;20447;-50
2023/04/20 19:30:04;;;;;;;47.90;34.67;;;;;;;9.54;98.44;97297.66;10401386;28;20091;-50
2023/04/20 19:35:03;;;;;;;45.30;34.83;;;;;;;9.44;98.32;97289.06;10401512;28;20075;-50
2023/04/20 19:40:04;;;;;;;;;;;;;;;9.46;97.86;97294.22;10401377;28;20072;-50
2023/04/20 19:45:03;;;;;;;39.63;29.70;;;;;;;9.37;98.16;97296.84;10400714;28;19956;-51
2023/04/20 19:50:03;;;;;;;39.42;27.88;;;;;;;9.33;98.85;97304.63;10401058;28;20076;-51
2023/04/20 19:55:02;;;;;;;;;;;;;;;9.33;99.11;97294.28;10401533;28;20064;-51
2023/04/20 20:00:03;;;;;;;52.80;36.17;;;;;;;9.25;99.22;97298.56;10401113;28;20384;-51
2023/04/20 20:05:02;;;;;;;48.80;37.03;;;;;;;9.13;99.36;97281.34;10401532;28;20098;-50
2023/04/20 20:10:01;;;;;;;;;;;;;;;9.31;99.34;97293.41;10401406;28;20450;-50
2023/04/20 20:15:00;;;;;;;49.65;37.33;;;;;;;9.35;99.69;97294.28;10400804;28;20405;-49
2023/04/20 20:19:59;;;;;;;52.03;39.63;;;;;;;9.37;99.08;97291.66;10400903;28;20032;-51
2023/04/20 20:25:00;;;;;;;54.33;40.78;;;;;;;9.20;99.60;97264.06;10400899;28;20373;-49
2023/04/20 20:29:59;;;;;;;59.65;44.00;;;;;;;9.43;99.95;97302.00;10400951;28;20116;-51
2023/04/20 20:34:58;;;;;;;67.53;49.55;;;;;;;9.42;99.59;97295.97;10398522;28;20036;-51
2023/04/20 20:39:57;;;;;;;61.72;45.70;;;;;;;9.49;99.74;97302.00;10399914;28;20068;-51
2023/04/20 20:44:59;;;;;;;70.80;51.17;;;;;;;9.53;99.65;97303.69;10400361;28;20016;-51
2023/04/20 20:49:58;;;;;;;70.63;50.95;;;;;;;9.44;99.17;97267.47;10401396;28;20072;-52
2023/04/20 20:54:57;;;;;;;66.68;48.92;;;;;;;9.63;99.76;97294.13;10400015;28;20566;-52
2023/04/20 20:59:56;;;;;;;65.70;48.47;;;;;;;9.69;99.66;97294.13;10402591;28;20583;-49
2023/04/20 21:04:55;;;;;;;77.70;55.53;;;;;;;9.69;98.95;97305.34;10409519;28;20059;-50
2023/04/20 21:09:54;;;;;;;65.03;44.55;;;;;;;9.68;99.10;97301.03;10406994;28;20417;-51
2023/04/20 21:14:53;;;;;;;59.40;44.22;;;;;;;9.12;98.36;97242.53;10406613;28;20068;-51
2023/04/20 21:19:52;;;;;;;58.70;42.33;;;;;;;9.03;98.33;97240.00;10406521;28;20471;-52
2023/04/20 21:24:51;;;;;;;51.33;36.80;;;;;;;9.25;98.62;97298.56;10406487;28;20501;-51
2023/04/20 21:29:50;;;;;;;48.95;34.97;;;;;;;8.37;98.17;97176.34;10406747;28;20032;-51
2023/04/20 21:34:50;;;;;;;39.55;28.10;;;;;;;9.10;98.82;97314.16;10406520;28;20578;-49
2023/04/20 21:39:52;;;;;;;40.90;27.83;;;;;;;9.05;98.93;97313.31;10406728;28;20059;-50
2023/04/20 21:44:51;;;;;;;45.30;29.02;;;;;;;9.02;98.63;97315.88;10405804;28;20120;-49
2023/04/20 21:49:49;;;;;;;49.67;32.55;;;;;;;8.97;98.67;97317.63;10405386;28;20151;-50
2023/04/20 21:54:49;;;;;;;49.92;35.15;;;;;;;8.81;99.07;97302.16;10406339;28;20108;-52
2023/04/20 21:59:48;;;;;;;51.60;34.17;;;;;;;8.86;98.93;97322.84;10386592;28;20076;-50
2023/04/20 22:04:47;;;;;;;43.60;32.50;;;;;;;8.87;99.09;97312.47;10405079;28;20087;-51
2023/04/20 22:09:46;;;;;;;44.70;33.15;;;;;;;8.69;98.76;97284.03;10402457;28;20167;-51
2023/04/20 22:14:45;;;;;;;35.92;28.05;;;;;;;8.90;99.18;97309.91;10401545;28;20036;-51
2023/04/20 22:19:44;;;;;;;36.45;27.13;;;;;;;8.95;99.39;97304.72;10401215;28;20042;-52
2023/04/20 22:24:43;;;;;;;32.95;25.50;;;;;;;8.96;99.04;97306.41;10403979;28;20056;-50
2023/04/20 22:29:42;;;;;;;38.47;26.42;;;;;;;8.93;98.90;97309.88;10403861;28;20123;-50
2023/04/20 22:34:41;;;;;;;34.15;25.92;;;;;;;8.95;98.72;97304.72;10404381;28;20028;-51
2023/04/20 22:39:40;;;;;;;37.88;26.60;;;;;;;8.97;99.28;97305.53;10405090;28;20032;-52
2023/04/20 22:44:39;;;;;;;39.10;28.38;;;;;;;9.01;99.61;97311.59;10388269;28;20120;-52
2023/04/20 22:49:38;;;;;;;45.40;34.22;;;;;;;8.97;98.17;97302.94;10405768;28;20516;-52
2023/04/20 22:54:37;;;;;;;52.20;36.45;;;;;;;8.94;98.93;97293.47;10406202;28;20570;-52
2023/04/20 22:59:36;;;;;;;50.33;35.63;;;;;;;8.99;99.13;97282.25;10405919;28;20066;-52
2023/04/20 23:04:36;;;;;;;54.25;37.28;;;;;;;9.04;98.82;97283.97;10406075;28;20027;-51
2023/04/20 23:09:41;;;;;;;58.10;41.47;;;;;;;8.94;97.89;97284.84;10406518;28;20048;-49